Time;durP1;ratioP1;P1;durP2;ratioP2;P2;SDS_P1;SDS_P2;PMS_P1;PMS_P2;Temp;Humidity;BMP_temperature;BMP_pressure;BME280_temperature;BME280_humidity;BME280_pressure;Samples;Min_cycle;Max_cycle;Signal;HPM_P1;HPM_P2
2021/08/11 00:00:08;;;;;;;9.63;5.45;;;;;;;15.78;100.00;96130.63;1026871;28;20026;-71
2021/08/11 00:00:38;;;;;;;10.73;5.43;;;;;;;15.72;100.00;96124.63;1027428;28;20073;-70
2021/08/11 00:01:09;;;;;;;9.38;5.07;;;;;;;15.75;100.00;96129.34;1022721;28;20086;-70
2021/08/11 00:01:39;;;;;;;6.38;5.13;;;;;;;15.73;100.00;96136.78;1026387;28;20030;-69
2021/08/11 00:02:10;;;;;;;8.88;5.43;;;;;;;15.74;100.00;96130.41;1022423;28;20047;-67
2021/08/11 00:02:40;;;;;;;7.95;5.40;;;;;;;15.74;100.00;96135.72;1026323;28;20027;-68
2021/08/11 00:03:10;;;;;;;9.68;5.45;;;;;;;15.69;100.00;96121.75;1030811;28;20019;-70
2021/08/11 00:03:41;;;;;;;10.57;5.03;;;;;;;15.73;100.00;96136.78;1026547;28;20389;-71
2021/08/11 00:04:11;;;;;;;9.65;5.15;;;;;;;15.72;100.00;96127.25;1030583;28;20052;-71
2021/08/11 00:04:42;;;;;;;8.80;5.65;;;;;;;15.72;100.00;96127.25;1024892;28;20027;-70
2021/08/11 00:05:12;;;;;;;7.10;5.05;;;;;;;15.71;100.00;96127.56;1026999;28;20459;-70
2021/08/11 00:05:43;;;;;;;7.30;5.05;;;;;;;15.71;100.00;96131.00;1026228;28;20026;-71
2021/08/11 00:06:13;;;;;;;9.45;4.93;;;;;;;15.64;100.00;96124.47;1022469;28;20024;-70
2021/08/11 00:06:44;;;;;;;8.02;5.20;;;;;;;15.71;100.00;96133.63;1025407;28;20085;-70
2021/08/11 00:07:14;;;;;;;6.60;5.03;;;;;;;15.72;100.00;96137.06;1026562;28;20026;-70
2021/08/11 00:07:45;;;;;;;7.60;5.10;;;;;;;15.71;100.00;96130.22;1032025;28;20388;-70
2021/08/11 00:08:15;;;;;;;9.32;5.22;;;;;;;15.71;100.00;96146.88;1039202;28;20025;-70
2021/08/11 00:08:46;;;;;;;8.70;5.13;;;;;;;15.69;100.00;96133.16;1031968;28;20022;-71
2021/08/11 00:09:17;;;;;;;11.50;5.25;;;;;;;15.71;100.00;96144.22;1027070;28;20022;-70
2021/08/11 00:09:47;;;;;;;12.50;5.40;;;;;;;15.69;100.00;96133.16;1030978;28;20543;-71
2021/08/11 00:10:18;;;;;;;6.28;5.22;;;;;;;15.69;100.00;96138.44;1027790;28;20043;-70
2021/08/11 00:10:48;;;;;;;8.02;5.38;;;;;;;15.69;100.00;96140.28;1030285;28;20500;-69
2021/08/11 00:11:22;;;;;;;9.30;5.50;;;;;;;15.69;100.00;96140.28;1022883;29;20031;-71
2021/08/11 00:11:52;;;;;;;9.93;5.32;;;;;;;15.68;100.00;96142.13;1022749;28;20055;-69
2021/08/11 00:12:23;;;;;;;10.18;5.45;;;;;;;15.61;100.00;96131.09;1027467;28;20752;-70
2021/08/11 00:12:53;;;;;;;8.55;4.97;;;;;;;15.65;100.00;96140.03;1028587;28;20027;-70
2021/08/11 00:13:23;;;;;;;8.48;5.53;;;;;;;15.61;100.00;96135.59;1030929;28;20034;-70
2021/08/11 00:13:54;;;;;;;10.07;5.40;;;;;;;15.63;100.00;96138.75;1023119;28;20397;-71
2021/08/11 00:14:25;;;;;;;15.18;5.72;;;;;;;15.63;100.00;96139.53;1025037;28;20122;-71
2021/08/11 00:14:56;;;;;;;11.45;6.30;;;;;;;15.62;100.00;96137.94;1026520;28;20023;-70
2021/08/11 00:15:29;;;;;;;14.10;5.57;;;;;;;15.59;100.00;96138.50;1031152;28;20022;-71
2021/08/11 00:15:59;;;;;;;19.90;5.88;;;;;;;15.60;100.00;96136.69;1030446;28;20034;-70
2021/08/11 00:16:30;;;;;;;13.60;6.22;;;;;;;15.49;100.00;96134.16;1027717;28;20023;-70
2021/08/11 00:17:00;;;;;;;9.43;5.25;;;;;;;15.56;100.00;96142.53;1030501;28;20023;-69
2021/08/11 00:17:31;;;;;;;12.70;5.03;;;;;;;15.55;100.00;96138.31;1030806;28;20029;-70
2021/08/11 00:18:01;;;;;;;12.40;5.50;;;;;;;15.56;100.00;96134.59;1030672;28;20019;-70
2021/08/11 00:18:32;;;;;;;9.38;4.85;;;;;;;15.54;100.00;96141.25;1034848;28;20504;-71
2021/08/11 00:19:02;;;;;;;8.80;5.03;;;;;;;15.52;100.00;96138.09;1030133;28;20026;-70
2021/08/11 00:19:33;;;;;;;9.73;4.97;;;;;;;15.49;100.00;96136.00;1022946;28;20061;-70
2021/08/11 00:20:04;;;;;;;5.60;4.97;;;;;;;15.47;100.00;96136.28;1022361;28;20477;-71
2021/08/11 00:20:35;;;;;;;7.60;5.30;;;;;;;15.50;100.00;96141.03;1034725;28;20021;-70
2021/08/11 00:21:06;;;;;;;9.63;5.53;;;;;;;15.49;100.00;96143.94;1030536;28;20034;-70
2021/08/11 00:21:36;;;;;;;10.07;5.30;;;;;;;15.46;100.00;96145.31;1031588;28;20022;-70
2021/08/11 00:22:07;;;;;;;8.15;5.50;;;;;;;15.44;100.00;96144.00;1027562;28;20026;-71
2021/08/11 00:22:37;;;;;;;17.15;6.20;;;;;;;15.42;100.00;96148.78;1028890;28;20014;-70
2021/08/11 00:23:08;;;;;;;8.13;5.47;;;;;;;15.43;100.00;96148.53;1022259;29;20050;-70
2021/08/11 00:23:38;;;;;;;9.85;5.43;;;;;;;15.39;100.00;96144.06;1030214;28;20018;-71
2021/08/11 00:24:08;;;;;;;6.55;4.47;;;;;;;15.38;100.00;96147.78;1030989;28;20026;-71
2021/08/11 00:24:39;;;;;;;7.50;5.45;;;;;;;15.32;100.00;96139.94;1039019;28;20022;-70
2021/08/11 00:25:09;;;;;;;9.32;5.15;;;;;;;15.34;100.00;96147.56;1034288;28;20021;-70
2021/08/11 00:25:40;;;;;;;7.30;5.30;;;;;;;15.26;100.00;96135.75;1026825;28;20083;-69
2021/08/11 00:26:10;;;;;;;9.05;5.57;;;;;;;15.33;100.00;96149.44;1029504;28;20030;-70
2021/08/11 00:26:41;;;;;;;9.57;5.25;;;;;;;15.31;100.00;96148.91;1032547;28;20023;-70
2021/08/11 00:27:11;;;;;;;8.55;4.93;;;;;;;15.30;100.00;96147.34;1035844;28;20025;-71
2021/08/11 00:27:42;;;;;;;9.35;5.65;;;;;;;15.26;100.00;96151.63;1036346;28;20018;-69
2021/08/11 00:28:12;;;;;;;9.00;5.07;;;;;;;15.28;100.00;96149.47;1032214;28;20126;-70
2021/08/11 00:28:43;;;;;;;10.50;5.57;;;;;;;15.27;100.00;96147.91;1027624;28;20074;-70
2021/08/11 00:29:13;;;;;;;17.27;6.22;;;;;;;15.27;100.00;96152.41;1031173;28;20041;-70
2021/08/11 00:29:43;;;;;;;9.00;5.13;;;;;;;15.25;100.00;96144.75;1035022;28;20026;-70
2021/08/11 00:30:14;;;;;;;14.95;5.78;;;;;;;15.25;100.00;96149.25;1038715;28;20025;-70
2021/08/11 00:30:44;;;;;;;7.15;5.35;;;;;;;15.23;100.00;96151.41;1038955;28;20029;-71
2021/08/11 00:31:15;;;;;;;7.60;5.10;;;;;;;15.22;100.00;96150.59;1038995;28;20083;-70
2021/08/11 00:31:46;;;;;;;10.68;5.45;;;;;;;15.20;100.00;96152.75;1037920;28;20516;-70
2021/08/11 00:32:16;;;;;;;14.05;5.63;;;;;;;15.22;100.00;96155.88;1034354;28;20033;-71
2021/08/11 00:32:47;;;;;;;17.20;5.40;;;;;;;15.20;100.00;96155.38;1036899;28;20849;-70
2021/08/11 00:33:17;;;;;;;9.52;5.40;;;;;;;15.19;100.00;96156.47;1034484;28;20377;-71
2021/08/11 00:33:48;;;;;;;9.25;5.43;;;;;;;15.18;100.00;96154.88;1032634;28;20041;-70
2021/08/11 00:34:18;;;;;;;8.38;5.28;;;;;;;15.19;100.00;96150.38;1034772;28;20029;-70
2021/08/11 00:34:49;;;;;;;8.60;5.43;;;;;;;15.18;100.00;96154.88;1032897;28;20030;-69
2021/08/11 00:35:19;;;;;;;8.98;6.00;;;;;;;15.18;100.00;96154.88;1030793;28;20030;-70
2021/08/11 00:35:50;;;;;;;8.60;5.70;;;;;;;15.17;100.00;96152.53;1030544;28;20049;-70
2021/08/11 00:36:20;;;;;;;11.57;5.30;;;;;;;15.16;100.00;96159.66;1030688;28;20038;-70
2021/08/11 00:36:51;;;;;;;9.25;5.32;;;;;;;15.14;100.00;96148.56;1034933;28;20041;-70
2021/08/11 00:37:21;;;;;;;11.70;5.60;;;;;;;15.14;100.00;96151.22;1038341;28;20072;-71
2021/08/11 00:37:51;;;;;;;9.38;5.45;;;;;;;15.08;100.00;96147.84;1038685;28;20087;-70
2021/08/11 00:38:22;;;;;;;8.43;5.10;;;;;;;15.13;100.00;96152.31;1034761;28;20468;-69
2021/08/11 00:38:53;;;;;;;8.38;5.32;;;;;;;15.13;100.00;96154.94;1033181;28;20599;-70
2021/08/11 00:39:23;;;;;;;9.20;5.45;;;;;;;15.12;100.00;96155.22;1027387;28;20035;-71
2021/08/11 00:39:58;;;;;;;7.82;5.60;;;;;;;15.12;100.00;96157.84;1022923;28;20051;-70
2021/08/11 00:40:29;;;;;;;9.15;5.63;;;;;;;15.11;100.00;96157.06;1030726;28;20041;-71
2021/08/11 00:40:59;;;;;;;8.10;5.20;;;;;;;15.11;100.00;96159.72;1029983;28;20069;-70
2021/08/11 00:41:30;;;;;;;5.95;4.72;;;;;;;15.09;100.00;96161.88;1026437;28;20440;-71
2021/08/11 00:42:01;;;;;;;11.55;5.88;;;;;;;15.06;100.00;96159.78;1029798;28;20576;-70
2021/08/11 00:42:31;;;;;;;8.45;5.18;;;;;;;15.08;100.00;96160.25;1029274;28;20038;-70
2021/08/11 00:43:05;;;;;;;8.05;5.07;;;;;;;15.09;100.00;96161.88;1030973;28;20026;-70
2021/08/11 00:43:36;;;;;;;8.98;5.30;;;;;;;15.09;100.00;96156.56;1031600;28;20598;-70
2021/08/11 00:44:06;;;;;;;15.50;5.40;;;;;;;15.06;100.00;96157.91;1034636;28;20029;-71
2021/08/11 00:44:37;;;;;;;6.40;4.90;;;;;;;15.06;100.00;96163.19;1036474;28;20030;-71
2021/08/11 00:45:08;;;;;;;6.95;4.88;;;;;;;15.07;100.00;96166.63;1039092;28;20025;-70
2021/08/11 00:45:38;;;;;;;9.02;5.00;;;;;;;15.06;100.00;96159.78;1038648;28;20017;-70
2021/08/11 00:46:12;;;;;;;10.52;5.50;;;;;;;15.07;100.00;96161.34;1035012;28;20025;-70
2021/08/11 00:46:43;;;;;;;7.70;5.55;;;;;;;14.99;100.00;96146.91;1031276;28;20476;-70
2021/08/11 00:47:14;;;;;;;6.50;4.75;;;;;;;15.08;100.00;96157.63;1030686;28;20053;-70
2021/08/11 00:47:44;;;;;;;6.15;4.90;;;;;;;15.08;100.00;96161.06;1026373;28;20493;-71
2021/08/11 00:48:14;;;;;;;8.70;4.90;;;;;;;15.06;100.00;96152.63;1030802;28;20400;-70
2021/08/11 00:48:45;;;;;;;7.30;5.53;;;;;;;15.04;100.00;96153.97;1031223;28;20428;-70
2021/08/11 00:49:16;;;;;;;11.40;5.78;;;;;;;15.09;100.00;96161.88;1030740;28;20622;-71
2021/08/11 00:49:46;;;;;;;9.13;5.35;;;;;;;15.08;100.00;96162.91;1022900;29;20034;-70
2021/08/11 00:50:17;;;;;;;7.40;5.22;;;;;;;15.06;100.00;96160.56;1022877;29;20094;-70
2021/08/11 00:50:47;;;;;;;9.15;5.57;;;;;;;15.06;100.00;96162.41;1026496;28;20508;-70
2021/08/11 00:51:18;;;;;;;7.22;5.35;;;;;;;15.06;100.00;96157.13;1027158;28;20034;-69
2021/08/11 00:51:48;;;;;;;9.88;4.90;;;;;;;14.99;100.00;96152.19;1030517;28;20037;-70
2021/08/11 00:52:19;;;;;;;8.25;5.30;;;;;;;15.05;100.00;96155.53;1030719;28;20034;-70
2021/08/11 00:52:49;;;;;;;8.10;5.57;;;;;;;15.05;100.00;96160.81;1026550;28;20071;-70
2021/08/11 00:53:22;;;;;;;8.90;4.97;;;;;;;15.04;100.00;96153.97;1026801;28;20035;-69
2021/08/11 00:53:53;;;;;;;9.85;5.68;;;;;;;15.04;100.00;96157.41;1019601;29;20028;-71
2021/08/11 00:54:23;;;;;;;10.20;5.22;;;;;;;15.00;100.00;96158.25;1029031;28;20041;-71
2021/08/11 00:54:54;;;;;;;7.55;5.05;;;;;;;15.03;100.00;96152.41;1022991;28;20046;-70
2021/08/11 00:55:24;;;;;;;6.85;4.88;;;;;;;15.02;100.00;96153.44;1027163;28;20028;-70
2021/08/11 00:55:56;;;;;;;7.72;5.40;;;;;;;14.97;100.00;96148.22;1026488;28;20037;-71
2021/08/11 00:56:27;;;;;;;7.00;5.03;;;;;;;14.99;100.00;96156.66;1028277;28;20031;-70
2021/08/11 00:56:57;;;;;;;8.20;4.90;;;;;;;15.00;100.00;96152.97;1027338;28;20023;-71
2021/08/11 00:57:27;;;;;;;10.82;5.35;;;;;;;14.98;100.00;96155.09;1023111;28;20027;-70
2021/08/11 00:57:58;;;;;;;8.48;5.10;;;;;;;14.91;100.00;96144.06;1030226;28;20042;-70
2021/08/11 00:58:28;;;;;;;6.78;5.07;;;;;;;14.98;100.00;96153.22;1023104;28;20027;-71
2021/08/11 00:58:59;;;;;;;7.85;5.07;;;;;;;14.99;100.00;96156.66;1026889;28;20194;-70
2021/08/11 00:59:29;;;;;;;7.18;5.32;;;;;;;14.97;100.00;96150.88;1026735;28;20556;-71
2021/08/11 01:00:00;;;;;;;7.82;5.55;;;;;;;14.97;100.00;96153.53;1026775;28;20085;-71
2021/08/11 01:00:30;;;;;;;8.05;5.50;;;;;;;14.90;100.00;96153.84;1026925;28;20079;-71
2021/08/11 01:01:01;;;;;;;8.65;5.82;;;;;;;14.94;100.00;96154.06;1030752;28;20044;-70
2021/08/11 01:01:32;;;;;;;6.78;5.53;;;;;;;14.94;100.00;96160.16;1026922;28;20031;-70
2021/08/11 01:02:03;;;;;;;7.57;5.13;;;;;;;14.93;100.00;96161.22;1026038;28;20046;-71
2021/08/11 01:02:33;;;;;;;7.68;5.50;;;;;;;14.88;100.00;96155.19;1027140;28;20034;-71
2021/08/11 01:03:04;;;;;;;8.82;5.50;;;;;;;14.88;100.00;96155.19;1018458;29;20024;-71
2021/08/11 01:03:34;;;;;;;8.73;5.40;;;;;;;14.91;100.00;96157.28;1023165;28;20445;-71
2021/08/11 01:04:05;;;;;;;9.75;5.70;;;;;;;14.89;100.00;96157.56;1022775;29;20362;-71
2021/08/11 01:04:36;;;;;;;7.28;5.40;;;;;;;14.89;100.00;96151.47;1025232;28;20027;-71
2021/08/11 01:05:07;;;;;;;14.30;5.70;;;;;;;14.93;100.00;96157.78;1019218;29;20027;-70
2021/08/11 01:05:38;;;;;;;7.72;5.28;;;;;;;14.93;100.00;96163.88;1022975;28;20040;-71
2021/08/11 01:06:09;;;;;;;8.55;5.35;;;;;;;14.93;100.00;96157.78;1025166;28;20030;-70
2021/08/11 01:06:39;;;;;;;8.65;5.70;;;;;;;14.90;100.00;96155.72;1023540;28;20055;-71
2021/08/11 01:07:10;;;;;;;10.82;5.68;;;;;;;14.90;100.00;96158.34;1026650;28;20492;-70
2021/08/11 01:07:40;;;;;;;10.85;5.85;;;;;;;14.90;100.00;96158.34;1026443;28;20563;-68
2021/08/11 01:08:11;;;;;;;9.73;5.78;;;;;;;14.79;100.00;96139.97;1022675;28;20561;-70
2021/08/11 01:08:41;;;;;;;8.50;5.78;;;;;;;14.87;100.00;96159.69;1026741;28;20420;-71
2021/08/11 01:09:13;;;;;;;10.20;5.88;;;;;;;14.87;100.00;96164.19;1022852;29;20030;-70
2021/08/11 01:09:44;;;;;;;6.85;5.18;;;;;;;14.86;100.00;96163.41;1019964;29;20031;-71
2021/08/11 01:10:14;;;;;;;11.98;6.07;;;;;;;14.84;100.00;96157.59;1019227;29;20036;-71
2021/08/11 01:10:47;;;;;;;10.38;5.93;;;;;;;14.82;100.00;96157.09;1023781;28;20046;-72
2021/08/11 01:11:18;;;;;;;6.10;5.40;;;;;;;14.82;100.00;96157.91;1021419;28;20091;-70
2021/08/11 01:11:49;;;;;;;10.98;5.88;;;;;;;14.81;100.00;96161.59;1022927;28;20031;-70
2021/08/11 01:12:23;;;;;;;10.18;5.88;;;;;;;14.74;100.00;96147.13;1022776;29;20023;-71
2021/08/11 01:12:53;;;;;;;9.27;5.47;;;;;;;14.77;100.00;96160.56;1019332;29;20403;-70
2021/08/11 01:13:24;;;;;;;7.78;5.28;;;;;;;14.76;100.00;96159.00;1019304;29;20029;-70
2021/08/11 01:13:55;;;;;;;9.45;5.05;;;;;;;14.77;100.00;96160.56;1027500;28;20540;-70
2021/08/11 01:14:25;;;;;;;9.38;5.43;;;;;;;14.75;100.00;96157.41;1026559;28;20030;-71
2021/08/11 01:14:56;;;;;;;14.13;6.07;;;;;;;14.77;100.00;96163.22;1026743;28;20456;-70
2021/08/11 01:15:29;;;;;;;10.85;5.93;;;;;;;14.76;100.00;96163.50;1026816;28;20101;-70
2021/08/11 01:15:59;;;;;;;8.20;5.10;;;;;;;14.76;100.00;96164.28;1027989;28;20101;-70
2021/08/11 01:16:30;;;;;;;11.25;6.03;;;;;;;14.76;100.00;96163.50;1031303;28;20077;-70
2021/08/11 01:17:01;;;;;;;11.30;6.13;;;;;;;14.75;100.00;96162.69;1038581;28;20049;-69
2021/08/11 01:17:31;;;;;;;8.32;5.30;;;;;;;14.79;100.00;96157.66;1029124;28;20068;-70
2021/08/11 01:18:03;;;;;;;12.50;6.20;;;;;;;14.78;100.00;96164.78;1026086;28;20065;-70
2021/08/11 01:18:33;;;;;;;10.30;5.97;;;;;;;14.76;100.00;96169.56;1026934;28;20037;-70
2021/08/11 01:19:04;;;;;;;20.48;6.53;;;;;;;14.75;100.00;96167.97;1023386;28;20030;-70
2021/08/11 01:19:34;;;;;;;8.50;5.90;;;;;;;14.75;100.00;96164.56;1030932;28;20034;-70
2021/08/11 01:20:05;;;;;;;9.07;5.50;;;;;;;14.72;100.00;96160.63;1030383;28;20030;-70
2021/08/11 01:20:36;;;;;;;11.07;6.10;;;;;;;14.73;100.00;96167.47;1030805;28;20037;-70
2021/08/11 01:21:11;;;;;;;9.45;5.88;;;;;;;14.73;100.00;96172.78;1026760;28;20098;-68
2021/08/11 01:21:46;;;;;;;10.35;6.15;;;;;;;14.73;100.00;96169.34;1026223;28;20023;-70
2021/08/11 01:22:27;;;;;;;10.38;5.93;;;;;;;14.64;100.00;96161.22;1022432;29;20277;-70
2021/08/11 01:23:07;;;;;;;7.03;5.57;;;;;;;14.70;100.00;96169.91;1026954;28;20031;-70
2021/08/11 01:24:01;;;;;;;9.32;6.13;;;;;;;14.78;100.00;96166.63;1026847;28;20022;-71
2021/08/11 01:24:48;;;;;;;6.57;5.45;;;;;;;14.72;100.00;96158.00;1007074;29;20515;-69
2021/08/11 01:25:34;;;;;;;7.72;5.75;;;;;;;14.80;100.00;96167.16;1015483;28;20052;-70
2021/08/11 01:26:16;;;;;;;8.57;5.72;;;;;;;14.79;100.00;96169.03;1026752;28;20746;-71
2021/08/11 01:27:19;;;;;;;12.73;5.70;;;;;;;14.77;100.00;96171.13;1032369;28;20089;-70
2021/08/11 01:27:56;;;;;;;9.07;5.90;;;;;;;14.77;100.00;96165.84;1020527;29;20039;-70
2021/08/11 01:28:55;;;;;;;10.18;5.88;;;;;;;14.81;100.00;96171.38;1027338;28;20038;-70
2021/08/11 01:29:48;;;;;;;10.10;6.25;;;;;;;14.84;100.00;96170.81;1038803;28;20025;-70
2021/08/11 01:30:27;;;;;;;7.65;5.70;;;;;;;14.89;100.00;96170.78;1014024;29;20284;-70
2021/08/11 01:31:07;;;;;;;7.18;5.85;;;;;;;14.90;100.00;96168.91;1010633;29;20051;-70
2021/08/11 01:32:03;;;;;;;7.78;5.82;;;;;;;14.90;100.00;96169.69;1027561;28;20027;-69
2021/08/11 01:32:59;;;;;;;11.25;5.88;;;;;;;14.91;100.00;96178.41;1035197;28;20060;-70
2021/08/11 01:34:08;;;;;;;9.30;5.32;;;;;;;14.92;100.00;96169.41;1032032;28;20030;-70
2021/08/11 01:34:43;;;;;;;8.40;5.53;;;;;;;14.87;100.00;96172.91;1034851;28;20519;-70
2021/08/11 01:35:16;;;;;;;10.27;6.10;;;;;;;14.90;100.00;96168.91;1021098;28;20043;-70
2021/08/11 01:35:48;;;;;;;10.18;5.80;;;;;;;14.87;100.00;96164.97;1022777;29;20047;-72
2021/08/11 01:36:47;;;;;;;9.13;6.28;;;;;;;14.84;100.00;96166.31;1022639;29;20082;-71
2021/08/11 01:37:23;;;;;;;8.55;5.70;;;;;;;14.76;100.00;96147.66;1026626;28;20477;-70
2021/08/11 01:37:54;;;;;;;8.75;5.95;;;;;;;14.82;100.00;96168.47;1024046;28;20033;-70
2021/08/11 01:38:24;;;;;;;9.30;5.95;;;;;;;14.85;100.00;96167.91;1018861;29;20107;-69
2021/08/11 01:39:10;;;;;;;10.75;6.20;;;;;;;14.82;100.00;96165.81;1026493;28;20030;-70
2021/08/11 01:39:43;;;;;;;8.18;5.43;;;;;;;14.81;100.00;96172.16;1026655;28;20042;-70
2021/08/11 01:40:17;;;;;;;11.13;6.22;;;;;;;14.76;100.00;96164.28;1026078;28;20614;-70
2021/08/11 01:40:51;;;;;;;7.05;5.57;;;;;;;14.76;100.00;96172.22;1032216;28;20022;-70
2021/08/11 01:41:24;;;;;;;8.48;6.30;;;;;;;14.76;100.00;96169.56;1022694;29;20031;-70
2021/08/11 01:42:06;;;;;;;9.50;5.70;;;;;;;14.76;100.00;96159.00;1021472;29;20326;-70
2021/08/11 01:42:38;;;;;;;12.80;6.35;;;;;;;14.75;100.00;96162.69;1019332;29;20539;-70
2021/08/11 01:43:09;;;;;;;11.52;6.85;;;;;;;14.66;100.00;96153.03;1022727;29;20030;-70
2021/08/11 01:43:44;;;;;;;12.48;6.38;;;;;;;14.73;100.00;96161.41;1025631;28;20045;-70
2021/08/11 01:44:15;;;;;;;10.77;6.82;;;;;;;14.66;100.00;96156.47;1016012;29;20036;-70
2021/08/11 01:45:02;;;;;;;9.52;6.53;;;;;;;14.69;100.00;96163.00;1020345;29;20023;-70
2021/08/11 01:45:37;;;;;;;11.23;6.82;;;;;;;14.67;100.00;96165.16;1022444;28;20023;-70
2021/08/11 01:46:07;;;;;;;14.45;6.50;;;;;;;14.64;100.00;96166.50;1026509;28;20084;-70
2021/08/11 01:46:41;;;;;;;8.73;5.93;;;;;;;14.53;100.00;96155.25;1019738;29;20526;-70
2021/08/11 01:47:15;;;;;;;11.25;6.32;;;;;;;14.59;100.00;96164.69;1029089;28;20409;-70
2021/08/11 01:47:53;;;;;;;10.23;6.05;;;;;;;14.57;100.00;96160.75;1026589;28;20078;-70
2021/08/11 01:48:26;;;;;;;9.32;7.18;;;;;;;14.53;100.00;96157.88;1026498;28;20086;-70
2021/08/11 01:48:56;;;;;;;9.93;6.40;;;;;;;14.56;100.00;96170.53;1023538;28;20093;-70
2021/08/11 01:49:26;;;;;;;12.00;6.78;;;;;;;14.50;100.00;96157.63;1026182;28;20158;-71
2021/08/11 01:49:57;;;;;;;7.80;5.93;;;;;;;14.58;100.00;96168.38;1033859;28;20527;-70
2021/08/11 01:50:30;;;;;;;11.05;6.28;;;;;;;14.54;100.00;96161.31;1026465;28;20057;-70
2021/08/11 01:51:00;;;;;;;10.05;6.50;;;;;;;14.56;100.00;96169.75;1025987;28;20034;-70
2021/08/11 01:51:30;;;;;;;8.68;6.07;;;;;;;14.56;100.00;96167.09;1026852;28;20027;-70
2021/08/11 01:52:01;;;;;;;11.27;6.32;;;;;;;14.62;100.00;96163.38;1024610;28;20019;-69
2021/08/11 01:52:33;;;;;;;12.13;6.43;;;;;;;14.52;100.00;96153.69;1022104;28;20591;-70
2021/08/11 01:53:04;;;;;;;10.55;6.43;;;;;;;14.58;100.00;96167.59;1030204;28;20029;-70
2021/08/11 01:53:35;;;;;;;11.98;6.40;;;;;;;14.59;100.00;96169.97;1026256;28;20033;-70
2021/08/11 01:54:07;;;;;;;8.32;6.05;;;;;;;14.58;100.00;96168.38;1030300;28;20022;-70
2021/08/11 01:54:37;;;;;;;11.75;6.57;;;;;;;14.58;100.00;96163.09;1022495;29;20016;-70
2021/08/11 01:55:12;;;;;;;9.90;6.50;;;;;;;14.60;100.00;96160.19;1026385;28;20029;-71
2021/08/11 01:55:43;;;;;;;8.70;6.20;;;;;;;14.64;100.00;96160.44;1027030;28;20033;-70
2021/08/11 01:56:14;;;;;;;10.18;6.43;;;;;;;14.64;100.00;96165.72;1027353;28;20101;-71
2021/08/11 01:56:45;;;;;;;8.32;6.00;;;;;;;14.65;100.00;96156.72;1031273;28;20552;-71
2021/08/11 01:57:16;;;;;;;7.93;6.20;;;;;;;14.66;100.00;96159.09;1030369;28;20015;-70
2021/08/11 01:57:51;;;;;;;11.90;5.93;;;;;;;14.67;100.00;96160.66;1030266;28;20010;-70
2021/08/11 01:58:24;;;;;;;10.07;6.75;;;;;;;14.68;100.00;96162.22;1030314;28;20054;-72
2021/08/11 01:58:55;;;;;;;11.88;6.32;;;;;;;14.65;100.00;96157.50;1027793;28;20034;-71
2021/08/11 01:59:25;;;;;;;7.97;6.35;;;;;;;14.56;100.00;96143.34;1029631;28;20010;-70
2021/08/11 01:59:56;;;;;;;8.88;6.45;;;;;;;14.58;100.00;96155.19;1025174;28;20030;-70
2021/08/11 02:00:26;;;;;;;8.43;6.28;;;;;;;14.55;100.00;96144.38;1026415;28;20027;-70
2021/08/11 02:01:01;;;;;;;7.82;6.35;;;;;;;14.59;100.00;96153.34;1026518;28;20011;-70
2021/08/11 02:01:31;;;;;;;8.77;6.45;;;;;;;14.57;100.00;96153.63;1023723;28;20018;-70
2021/08/11 02:02:02;;;;;;;10.90;7.20;;;;;;;14.61;100.00;96161.78;1030209;28;20030;-70
2021/08/11 02:02:32;;;;;;;8.55;6.45;;;;;;;14.56;100.00;96153.91;1026843;28;20026;-69
2021/08/11 02:03:03;;;;;;;11.25;7.10;;;;;;;14.56;100.00;96148.63;1030509;28;20395;-69
2021/08/11 02:03:33;;;;;;;9.95;6.40;;;;;;;14.55;100.00;96153.13;1026564;28;20022;-71
2021/08/11 02:04:05;;;;;;;9.60;7.25;;;;;;;14.52;100.00;96158.97;1030708;28;20046;-70
2021/08/11 02:04:35;;;;;;;7.47;6.28;;;;;;;14.55;100.00;96157.59;1022315;29;20047;-71
2021/08/11 02:05:08;;;;;;;10.70;7.53;;;;;;;14.54;100.00;96156.03;1019185;28;20020;-71
2021/08/11 02:05:38;;;;;;;12.15;7.13;;;;;;;14.48;100.00;96154.44;1026459;28;20026;-71
2021/08/11 02:06:09;;;;;;;12.32;7.43;;;;;;;14.49;100.00;96148.13;1026681;28;20458;-71
2021/08/11 02:06:39;;;;;;;8.95;6.18;;;;;;;14.51;100.00;96160.00;1030795;28;20380;-71
2021/08/11 02:07:10;;;;;;;8.07;6.30;;;;;;;14.52;100.00;96158.97;1026524;28;20601;-71
2021/08/11 02:07:41;;;;;;;8.27;6.57;;;;;;;14.50;100.00;96158.44;1029818;28;20033;-71
2021/08/11 02:08:11;;;;;;;9.07;6.85;;;;;;;14.48;100.00;96157.09;1034687;28;20431;-70
2021/08/11 02:08:43;;;;;;;9.90;6.60;;;;;;;14.48;100.00;96154.44;1022642;28;20019;-70
2021/08/11 02:09:13;;;;;;;9.77;6.53;;;;;;;14.46;100.00;96153.97;1022619;28;20018;-70
2021/08/11 02:09:44;;;;;;;9.90;6.47;;;;;;;14.46;100.00;96156.59;1027887;28;20025;-70
2021/08/11 02:10:15;;;;;;;10.73;6.55;;;;;;;14.46;100.00;96159.25;1034580;28;20014;-71
2021/08/11 02:10:45;;;;;;;12.40;6.78;;;;;;;14.44;100.00;96156.06;1034164;28;20057;-72
2021/08/11 02:11:15;;;;;;;9.10;6.90;;;;;;;14.42;100.00;96161.66;1029539;28;20057;-70
2021/08/11 02:11:46;;;;;;;9.10;6.25;;;;;;;14.38;100.00;96158.78;1029855;28;20019;-71
2021/08/11 02:12:16;;;;;;;9.70;6.45;;;;;;;14.23;100.00;96135.13;1030439;28;20025;-71
2021/08/11 02:12:47;;;;;;;10.70;7.00;;;;;;;14.42;100.00;96163.47;1026283;28;20030;-71
2021/08/11 02:13:17;;;;;;;13.88;6.97;;;;;;;14.45;100.00;96160.28;1026717;28;20019;-70
2021/08/11 02:13:48;;;;;;;12.07;6.88;;;;;;;14.46;100.00;96156.59;1030559;28;20034;-71
2021/08/11 02:14:18;;;;;;;8.02;6.30;;;;;;;14.46;100.00;96160.03;1026386;28;20039;-71
2021/08/11 02:14:49;;;;;;;11.35;7.15;;;;;;;14.43;100.00;96160.56;1022310;29;20038;-71
2021/08/11 02:15:19;;;;;;;10.07;6.50;;;;;;;14.44;100.00;96159.50;1022592;29;20027;-71
2021/08/11 02:15:50;;;;;;;8.43;6.78;;;;;;;14.45;100.00;96160.28;1022134;28;20038;-71
2021/08/11 02:16:21;;;;;;;8.20;6.93;;;;;;;14.45;100.00;96158.44;1022995;28;20039;-71
2021/08/11 02:16:51;;;;;;;10.73;8.10;;;;;;;14.44;100.00;96158.72;1026275;28;20429;-71
2021/08/11 02:17:22;;;;;;;11.70;7.30;;;;;;;14.33;100.00;96147.44;1026469;28;20037;-71
2021/08/11 02:17:52;;;;;;;11.68;7.13;;;;;;;14.36;100.00;96155.59;1026309;28;20172;-71
2021/08/11 02:18:23;;;;;;;11.88;7.60;;;;;;;14.34;100.00;96154.31;1026194;28;20026;-71
2021/08/11 02:18:53;;;;;;;10.82;6.75;;;;;;;14.34;100.00;96163.00;1030389;28;20045;-71
2021/08/11 02:19:23;;;;;;;9.95;7.20;;;;;;;14.36;100.00;96160.88;1030543;28;20034;-70
2021/08/11 02:19:54;;;;;;;15.77;7.78;;;;;;;14.33;100.00;96153.50;1038306;28;20029;-70
2021/08/11 02:20:24;;;;;;;10.55;6.93;;;;;;;14.32;100.00;96164.38;1034858;28;20034;-71
2021/08/11 02:20:55;;;;;;;10.05;7.00;;;;;;;14.33;100.00;96158.00;1030509;28;20093;-71
2021/08/11 02:21:25;;;;;;;11.00;7.90;;;;;;;14.25;100.00;96154.13;1026231;28;20070;-70
2021/08/11 02:21:56;;;;;;;13.63;7.88;;;;;;;14.22;100.00;96143.28;1017513;29;20397;-71
2021/08/11 02:22:26;;;;;;;12.18;7.03;;;;;;;14.28;100.00;96158.81;1026304;28;20042;-71
2021/08/11 02:22:56;;;;;;;13.48;6.97;;;;;;;14.29;100.00;96157.78;1023399;28;20027;-71
2021/08/11 02:23:27;;;;;;;12.07;7.15;;;;;;;14.30;100.00;96148.78;1022616;28;20074;-71
2021/08/11 02:23:57;;;;;;;11.82;7.50;;;;;;;14.28;100.00;96152.75;1022505;28;20058;-71
2021/08/11 02:24:28;;;;;;;10.38;7.10;;;;;;;14.31;100.00;96150.34;1022589;28;20557;-71
2021/08/11 02:24:58;;;;;;;7.93;6.85;;;;;;;14.37;100.00;96167.75;1025693;28;20053;-70
2021/08/11 02:25:29;;;;;;;9.43;6.60;;;;;;;14.33;100.00;96158.78;1026508;28;20105;-70
2021/08/11 02:26:05;;;;;;;10.77;6.93;;;;;;;14.36;100.00;96162.75;1022666;28;20027;-70
2021/08/11 02:26:49;;;;;;;10.43;7.50;;;;;;;14.38;100.00;96163.25;1027343;28;20545;-70
2021/08/11 02:27:25;;;;;;;11.65;7.57;;;;;;;14.39;100.00;96159.56;1019951;29;20347;-70
2021/08/11 02:28:05;;;;;;;10.55;7.13;;;;;;;14.40;100.00;96163.75;1026093;28;20269;-70
2021/08/11 02:28:58;;;;;;;12.43;6.75;;;;;;;14.35;100.00;96159.31;1030249;28;20262;-71
2021/08/11 02:29:37;;;;;;;12.02;7.38;;;;;;;14.39;100.00;96160.34;1023639;28;20053;-71
2021/08/11 02:30:13;;;;;;;11.02;6.53;;;;;;;14.39;100.00;96159.56;1028139;28;20347;-70